createdAt,value
2022-09-10T00:01:32.579Z,66.31
2022-09-10T00:04:02.220Z,66.13
2022-09-10T00:06:35.444Z,66.00
2022-09-10T00:09:03.881Z,66.22
2022-09-10T00:11:32.940Z,66.54
2022-09-10T00:14:02.470Z,66.24
2022-09-10T00:16:32.195Z,66.85
2022-09-10T00:19:01.695Z,66.39
2022-09-10T00:21:32.189Z,66.64
2022-09-10T00:24:00.871Z,66.47
2022-09-10T00:26:31.487Z,66.45
2022-09-10T00:29:00.819Z,66.58
2022-09-10T00:31:32.098Z,66.61
2022-09-10T00:34:02.184Z,66.89
2022-09-10T00:36:34.757Z,66.98
2022-09-10T00:39:05.349Z,66.70
2022-09-10T00:41:34.686Z,66.93
2022-09-10T00:44:05.600Z,66.71
2022-09-10T00:46:43.287Z,66.76
2022-09-10T00:49:15.850Z,66.82
2022-09-10T00:51:47.854Z,66.80
2022-09-10T00:54:18.939Z,66.89
2022-09-10T00:56:48.845Z,66.83
2022-09-10T00:59:21.280Z,67.01
2022-09-10T01:01:50.969Z,67.13
2022-09-10T01:04:19.030Z,66.93
2022-09-10T01:06:54.616Z,66.76
2022-09-10T01:09:24.910Z,66.49
2022-09-10T01:12:11.514Z,66.68
2022-09-10T01:15:09.250Z,66.42
2022-09-10T01:17:52.830Z,66.41
2022-09-10T01:20:35.075Z,66.66
2022-09-10T01:23:32.077Z,66.84
2022-09-10T01:26:11.924Z,66.40
2022-09-10T01:28:46.271Z,66.75
2022-09-10T01:31:22.906Z,66.80
2022-09-10T01:33:59.386Z,66.67
2022-09-10T01:36:33.460Z,66.71
2022-09-10T01:39:02.368Z,66.55
2022-09-10T01:41:30.240Z,66.85
2022-09-10T01:43:59.579Z,66.64
2022-09-10T01:46:42.162Z,66.80
2022-09-10T01:49:28.908Z,66.78
2022-09-10T01:52:13.729Z,66.46
2022-09-10T01:54:56.474Z,66.75
2022-09-10T01:57:35.880Z,66.70
2022-09-10T02:00:09.811Z,66.65
2022-09-10T02:02:43.200Z,66.88
2022-09-10T02:05:12.618Z,66.79
2022-09-10T02:07:41.389Z,67.03
2022-09-10T02:10:10.867Z,66.95
2022-09-10T02:12:40.037Z,67.20
2022-09-10T02:15:11.598Z,67.02
2022-09-10T02:17:40.622Z,67.28
2022-09-10T02:20:14.053Z,67.28
2022-09-10T02:22:45.849Z,67.05
2022-09-10T02:25:14.076Z,67.29
2022-09-10T02:27:43.514Z,67.30
2022-09-10T02:30:13.798Z,67.28
2022-09-10T02:32:42.016Z,67.26
2022-09-10T02:35:10.345Z,67.28
2022-09-10T02:37:38.557Z,67.29
2022-09-10T02:40:07.356Z,67.22
2022-09-10T02:42:35.487Z,67.31
2022-09-10T02:45:03.242Z,67.33
2022-09-10T02:47:32.850Z,67.06
2022-09-10T02:50:02.005Z,67.23
2022-09-10T02:52:30.723Z,67.35
2022-09-10T02:54:58.470Z,67.21
2022-09-10T02:57:27.165Z,66.97
2022-09-10T02:59:56.760Z,67.19
2022-09-10T03:02:25.657Z,67.16
2022-09-10T03:04:55.216Z,67.26
2022-09-10T03:07:22.942Z,67.08
2022-09-10T03:09:51.065Z,67.38
2022-09-10T03:12:18.803Z,67.12
2022-09-10T03:14:47.791Z,67.35
2022-09-10T03:17:15.619Z,66.98
2022-09-10T03:19:43.881Z,67.15
2022-09-10T03:22:12.971Z,67.18
2022-09-10T03:24:40.685Z,67.19
2022-09-10T03:27:08.958Z,67.34
2022-09-10T03:29:36.757Z,67.63
2022-09-10T03:32:04.981Z,67.41
2022-09-10T03:34:32.717Z,67.25
2022-09-10T03:37:01.119Z,67.24
2022-09-10T03:39:30.211Z,67.32
2022-09-10T03:41:58.888Z,67.48
2022-09-10T03:44:26.637Z,67.41
2022-09-10T03:46:54.705Z,67.44
2022-09-10T03:49:22.883Z,67.26
2022-09-10T03:51:51.213Z,67.39
2022-09-10T03:54:19.284Z,67.40
2022-09-10T03:56:48.415Z,67.63
2022-09-10T03:59:17.667Z,67.47
2022-09-10T04:01:47.279Z,67.47
2022-09-10T04:04:15.690Z,67.62
2022-09-10T04:06:44.519Z,67.41
2022-09-10T04:09:12.777Z,67.43
2022-09-10T04:11:40.675Z,67.67
2022-09-10T04:14:10.617Z,67.74
2022-09-10T04:16:38.382Z,67.75
2022-09-10T04:19:06.085Z,67.61
2022-09-10T04:21:34.234Z,67.61
2022-09-10T04:24:02.031Z,67.62
2022-09-10T04:26:30.237Z,67.81
2022-09-10T04:28:57.953Z,67.82
2022-09-10T04:31:27.567Z,67.74
2022-09-10T04:33:55.402Z,67.63
2022-09-10T04:36:23.587Z,67.61
2022-09-10T04:38:51.374Z,67.62
2022-09-10T04:41:20.029Z,67.44
2022-09-10T04:43:47.852Z,67.60
2022-09-10T04:46:15.994Z,67.57
2022-09-10T04:48:45.103Z,67.73
2022-09-10T04:51:16.461Z,67.37
2022-09-10T04:53:45.226Z,67.40
2022-09-10T04:56:13.106Z,67.41
2022-09-10T04:58:41.831Z,67.54
2022-09-10T05:01:10.315Z,67.63
2022-09-10T05:03:38.169Z,67.39
2022-09-10T05:06:08.233Z,67.41
2022-09-10T05:08:36.567Z,67.31
2022-09-10T05:11:04.564Z,67.32
2022-09-10T05:13:32.962Z,67.38
2022-09-10T05:16:02.129Z,67.58
2022-09-10T05:18:30.181Z,67.54
2022-09-10T05:20:57.973Z,67.51
2022-09-10T05:23:27.713Z,67.45
2022-09-10T05:25:56.734Z,67.22
2022-09-10T05:28:25.217Z,67.66
2022-09-10T05:30:53.007Z,67.41
2022-09-10T05:33:21.425Z,67.30
2022-09-10T05:35:52.144Z,67.39
2022-09-10T05:38:21.027Z,67.25
2022-09-10T05:40:50.945Z,67.73
2022-09-10T05:43:19.234Z,67.58
2022-09-10T05:45:47.823Z,67.61
2022-09-10T05:48:15.568Z,67.71
2022-09-10T05:50:45.915Z,67.83
2022-09-10T05:53:14.657Z,67.88
2022-09-10T05:55:43.858Z,67.57
2022-09-10T05:58:14.490Z,67.89
2022-09-10T06:00:44.600Z,67.63
2022-09-10T06:03:12.788Z,67.68
2022-09-10T06:05:41.038Z,67.42
2022-09-10T06:08:09.352Z,67.47
2022-09-10T06:10:37.285Z,67.28
2022-09-10T06:13:06.400Z,67.31
2022-09-10T06:15:36.080Z,67.27
2022-09-10T06:18:03.902Z,67.41
2022-09-10T06:20:32.576Z,67.48
2022-09-10T06:23:01.209Z,67.58
2022-09-10T06:25:28.939Z,67.51
2022-09-10T06:27:57.247Z,67.60
2022-09-10T06:30:25.190Z,67.58
2022-09-10T06:32:54.399Z,67.58
2022-09-10T06:35:23.022Z,67.38
2022-09-10T06:37:51.190Z,67.22
2022-09-10T06:40:19.601Z,67.29
2022-09-10T06:42:47.810Z,67.17
2022-09-10T06:45:16.215Z,67.25
2022-09-10T06:48:36.738Z,67.53
2022-09-10T06:50:33.671Z,67.38
2022-09-10T06:53:01.768Z,67.18
2022-09-10T06:55:29.586Z,67.30
2022-09-10T06:58:00.553Z,67.41
2022-09-10T07:00:28.481Z,67.20
2022-09-10T07:02:56.679Z,67.38
2022-09-10T07:05:24.952Z,67.58
2022-09-10T07:07:55.387Z,67.34
2022-09-10T07:10:23.671Z,67.32
2022-09-10T07:12:51.618Z,67.23
2022-09-10T07:15:19.751Z,67.18
2022-09-10T07:17:47.454Z,67.24
2022-09-10T07:20:15.585Z,67.26
2022-09-10T07:22:43.732Z,67.00
2022-09-10T07:25:13.930Z,66.93
2022-09-10T07:27:41.646Z,66.88
2022-09-10T07:30:10.434Z,66.83
2022-09-10T07:32:38.876Z,66.77
2022-09-10T07:35:07.545Z,66.59
2022-09-10T07:37:35.663Z,66.78
2022-09-10T07:40:04.751Z,66.72
2022-09-10T07:42:34.989Z,66.69
2022-09-10T07:45:02.834Z,66.47
2022-09-10T07:47:30.992Z,66.65
2022-09-10T07:49:58.744Z,66.17
2022-09-10T07:52:26.906Z,66.51
2022-09-10T07:54:54.666Z,66.20
2022-09-10T07:57:22.869Z,66.30
2022-09-10T07:59:52.008Z,66.43
2022-09-10T08:02:20.793Z,66.36
2022-09-10T08:04:48.693Z,66.50
2022-09-10T08:07:17.768Z,66.48
2022-09-10T08:09:45.546Z,66.67
2022-09-10T08:12:13.344Z,66.36
2022-09-10T08:14:42.879Z,66.25
2022-09-10T08:17:12.020Z,66.65
2022-09-10T08:19:40.601Z,66.82
2022-09-10T08:22:13.323Z,66.83
2022-09-10T08:24:41.881Z,66.69
2022-09-10T08:27:11.533Z,66.93
2022-09-10T08:29:40.108Z,67.33
2022-09-10T08:32:07.846Z,67.19
2022-09-10T08:34:37.447Z,66.94
2022-09-10T08:37:05.658Z,67.10
2022-09-10T08:39:33.501Z,66.91
2022-09-10T08:42:05.471Z,67.62
2022-09-10T08:44:38.422Z,66.91
2022-09-10T08:47:21.442Z,66.96
2022-09-10T08:49:53.863Z,67.47
2022-09-10T08:52:31.088Z,66.80
2022-09-10T08:55:06.635Z,67.47
2022-09-10T08:57:40.393Z,67.29
2022-09-10T09:00:13.071Z,67.16
2022-09-10T09:02:49.837Z,66.92
2022-09-10T09:05:22.084Z,66.60
2022-09-10T09:07:50.485Z,66.84
2022-09-10T09:10:31.793Z,66.58
2022-09-10T09:13:19.608Z,66.23
2022-09-10T09:15:55.089Z,65.95
2022-09-10T09:18:32.253Z,65.91
2022-09-10T09:21:09.674Z,65.93
2022-09-10T09:24:09.313Z,65.15
2022-09-10T09:26:36.970Z,65.04
2022-09-10T09:29:08.853Z,64.63
2022-09-10T09:31:42.761Z,64.68
2022-09-10T09:34:19.200Z,64.53
2022-09-10T09:36:51.500Z,64.65
2022-09-10T09:39:25.764Z,64.93
2022-09-10T09:42:05.222Z,64.92
2022-09-10T09:44:39.492Z,64.27
2022-09-10T09:47:09.105Z,63.98
2022-09-10T09:49:36.934Z,63.76
2022-09-10T09:52:18.633Z,63.31
2022-09-10T09:57:43.048Z,63.19
2022-09-10T10:00:36.230Z,62.95
2022-09-10T10:03:19.427Z,63.37
2022-09-10T10:05:49.282Z,62.93
2022-09-10T10:08:31.352Z,62.59
2022-09-10T10:10:59.727Z,63.07
2022-09-10T10:13:37.783Z,62.79
2022-09-10T10:16:17.298Z,62.41
2022-09-10T10:18:46.309Z,61.87
2022-09-10T10:21:21.168Z,61.68
2022-09-10T10:23:50.895Z,61.74
2022-09-10T10:26:31.094Z,61.82
2022-09-10T10:29:01.696Z,61.11
2022-09-10T10:31:41.892Z,61.17
2022-09-10T10:34:35.998Z,60.91
2022-09-10T10:37:10.543Z,61.28
2022-09-10T10:40:05.384Z,60.80
2022-09-10T10:42:36.890Z,61.08
2022-09-10T10:45:31.693Z,60.78
2022-09-10T10:48:10.037Z,60.31
2022-09-10T10:50:52.873Z,60.42
2022-09-10T10:53:37.850Z,58.81
2022-09-10T10:56:15.126Z,59.11
2022-09-10T10:58:57.053Z,58.94
2022-09-10T11:01:27.856Z,58.37
2022-09-10T11:04:03.384Z,58.37
2022-09-10T11:06:39.160Z,58.20
2022-09-10T11:09:13.818Z,57.75
2022-09-10T11:11:52.366Z,57.97
2022-09-10T11:16:58.784Z,57.40
2022-09-10T11:19:35.774Z,57.49
2022-09-10T11:22:12.455Z,56.94
2022-09-10T11:24:45.998Z,56.62
2022-09-10T11:27:21.274Z,56.64
2022-09-10T11:29:53.025Z,56.92
2022-09-10T11:32:28.854Z,56.87
2022-09-10T11:35:04.970Z,56.40
2022-09-10T11:37:51.478Z,55.61
2022-09-10T11:40:27.014Z,55.90
2022-09-10T11:43:01.241Z,55.69
2022-09-10T11:45:39.210Z,56.50
2022-09-10T11:48:17.990Z,55.18
2022-09-10T11:50:50.719Z,55.97
2022-09-10T11:53:21.934Z,55.19
2022-09-10T11:56:19.982Z,55.68
2022-09-10T11:59:03.040Z,54.46
2022-09-10T12:02:02.852Z,54.90
2022-09-10T12:04:47.512Z,54.77
2022-09-10T12:07:26.810Z,54.95
2022-09-10T12:10:13.508Z,54.52
2022-09-10T12:12:44.347Z,54.77
2022-09-10T12:15:21.392Z,54.61
2022-09-10T12:17:54.667Z,55.73
2022-09-10T12:20:30.146Z,57.24
2022-09-10T12:22:59.036Z,58.14
2022-09-10T12:25:34.179Z,58.28
2022-09-10T12:28:06.839Z,58.42
2022-09-10T12:31:04.240Z,58.27
2022-09-10T12:34:07.808Z,59.15
2022-09-10T12:37:10.456Z,59.33
2022-09-10T12:39:38.461Z,59.57
2022-09-10T12:42:25.810Z,58.99
2022-09-10T12:44:54.051Z,58.14
2022-09-10T12:47:47.011Z,57.16
2022-09-10T12:50:23.242Z,56.61
2022-09-10T12:53:18.898Z,56.33
2022-09-10T12:55:59.666Z,56.32
2022-09-10T12:58:41.311Z,55.75
2022-09-10T13:01:19.048Z,55.53
2022-09-10T13:03:56.336Z,55.12
2022-09-10T13:06:36.316Z,55.85
2022-09-10T13:09:17.585Z,55.83
2022-09-10T13:11:50.721Z,55.32
2022-09-10T13:14:23.277Z,54.96
2022-09-10T13:16:51.408Z,54.79
2022-09-10T13:19:54.730Z,54.64
2022-09-10T13:22:58.012Z,55.11
2022-09-10T13:25:35.181Z,55.60
2022-09-10T13:28:03.548Z,55.09
2022-09-10T13:30:32.544Z,55.51
2022-09-10T13:33:07.349Z,55.37
2022-09-10T13:36:06.818Z,56.36
2022-09-10T13:39:02.208Z,56.60
2022-09-10T13:42:03.233Z,56.80
2022-09-10T13:44:54.500Z,57.14
2022-09-10T13:47:28.672Z,57.84
2022-09-10T13:50:02.513Z,58.62
2022-09-10T13:52:36.225Z,58.17
2022-09-10T13:55:08.582Z,57.92
2022-09-10T13:57:41.134Z,58.60
2022-09-10T14:00:20.021Z,58.32
2022-09-10T14:02:50.656Z,58.29
2022-09-10T14:05:30.140Z,58.54
2022-09-10T14:08:02.800Z,58.54
2022-09-10T14:10:31.260Z,58.72
2022-09-10T14:12:59.946Z,58.26
2022-09-10T14:15:34.249Z,57.57
2022-09-10T14:18:02.366Z,58.17
2022-09-10T14:20:32.838Z,58.35
2022-09-10T14:23:04.256Z,58.41
2022-09-10T14:25:34.704Z,58.52
2022-09-10T14:28:25.748Z,58.84
2022-09-10T14:31:19.305Z,58.82
2022-09-10T14:33:47.702Z,58.90
2022-09-10T14:36:17.933Z,58.95
2022-09-10T14:38:55.017Z,59.16
2022-09-10T14:41:25.154Z,59.63
2022-09-10T14:44:31.585Z,59.74
2022-09-10T14:47:00.955Z,59.77
2022-09-10T14:49:30.973Z,59.92
2022-09-10T14:51:59.634Z,59.98
2022-09-10T14:54:29.670Z,60.20
2022-09-10T14:56:58.538Z,60.01
2022-09-10T14:59:31.445Z,60.15
2022-09-10T15:02:01.197Z,60.40
2022-09-10T15:04:31.057Z,60.22
2022-09-10T15:06:59.833Z,60.15
2022-09-10T15:09:30.344Z,59.66
2022-09-10T15:12:02.232Z,59.76
2022-09-10T15:14:32.356Z,60.09
2022-09-10T15:17:00.551Z,59.82
2022-09-10T15:19:28.323Z,60.14
2022-09-10T15:21:56.724Z,60.22
2022-09-10T15:24:25.216Z,60.29
2022-09-10T15:26:56.590Z,59.94
2022-09-10T15:29:26.154Z,60.25
2022-09-10T15:31:54.907Z,60.27
2022-09-10T15:34:22.591Z,60.32
2022-09-10T15:36:50.884Z,60.25
2022-09-10T15:39:18.659Z,60.38
2022-09-10T15:41:46.727Z,60.03
2022-09-10T15:44:18.315Z,60.17
2022-09-10T15:46:47.550Z,60.24
2022-09-10T15:49:15.309Z,60.03
2022-09-10T15:51:43.065Z,60.06
2022-09-10T15:54:12.408Z,60.15
2022-09-10T15:56:41.263Z,60.53
2022-09-10T15:59:10.244Z,60.74
2022-09-10T16:01:40.008Z,60.70
2022-09-10T16:04:08.055Z,60.70
2022-09-10T16:06:38.203Z,60.53
2022-09-10T16:09:09.493Z,60.70
2022-09-10T16:11:39.580Z,60.88
2022-09-10T16:14:08.947Z,61.13
2022-09-10T16:16:37.776Z,60.96
2022-09-10T16:19:07.462Z,61.18
2022-09-10T16:21:38.578Z,61.36
2022-09-10T16:24:08.064Z,61.28
2022-09-10T16:26:37.803Z,61.08
2022-09-10T16:29:09.253Z,61.11
2022-09-10T16:31:39.145Z,61.33
2022-09-10T16:34:12.994Z,61.35
2022-09-10T16:36:40.786Z,61.20
2022-09-10T16:39:13.341Z,61.37
2022-09-10T16:41:42.052Z,61.46
2022-09-10T16:44:11.501Z,61.51
2022-09-10T16:46:39.413Z,61.67
2022-09-10T16:49:12.888Z,61.65
2022-09-10T16:51:42.116Z,61.37
2022-09-10T16:54:11.809Z,61.59
2022-09-10T16:56:42.286Z,61.66
2022-09-10T16:59:15.283Z,61.71
2022-09-10T17:01:44.937Z,61.78
2022-09-10T17:04:20.501Z,61.84
2022-09-10T17:06:51.175Z,61.68
2022-09-10T17:09:19.440Z,61.51
2022-09-10T17:11:47.179Z,61.39
2022-09-10T17:14:14.883Z,61.50
2022-09-10T17:16:44.036Z,61.53
2022-09-10T17:19:14.557Z,61.51
2022-09-10T17:21:47.293Z,61.33
2022-09-10T17:24:15.723Z,61.38
2022-09-10T17:26:44.092Z,61.34
2022-09-10T17:29:14.708Z,61.22
2022-09-10T17:31:43.651Z,61.37
2022-09-10T17:34:13.362Z,61.38
2022-09-10T17:36:44.191Z,61.51
2022-09-10T17:39:12.534Z,61.18
2022-09-10T17:41:40.641Z,61.27
2022-09-10T17:44:08.992Z,61.36
2022-09-10T17:46:37.591Z,61.47
2022-09-10T17:49:06.254Z,61.76
2022-09-10T17:51:37.789Z,62.10
2022-09-10T17:54:08.330Z,62.51
2022-09-10T17:56:38.323Z,62.73
2022-09-10T17:59:07.031Z,62.61
2022-09-10T18:01:38.192Z,62.66
2022-09-10T18:04:06.282Z,62.55
2022-09-10T18:06:36.429Z,62.97
2022-09-10T18:09:06.469Z,62.78
2022-09-10T18:11:36.556Z,63.06
2022-09-10T18:14:05.014Z,62.91
2022-09-10T18:16:34.223Z,63.01
2022-09-10T18:19:04.603Z,62.91
2022-09-10T18:21:34.693Z,62.74
2022-09-10T18:24:05.165Z,62.74
2022-09-10T18:26:36.941Z,63.09
2022-09-10T18:29:06.524Z,63.06
2022-09-10T18:31:37.452Z,62.79
2022-09-10T18:34:06.366Z,62.95
2022-09-10T18:36:35.402Z,63.05
2022-09-10T18:39:04.378Z,62.66
2022-09-10T18:41:36.455Z,62.76
2022-09-10T18:44:07.174Z,63.07
2022-09-10T18:46:36.885Z,63.01
2022-09-10T18:49:05.693Z,62.64
2022-09-10T18:51:33.414Z,63.04
2022-09-10T18:54:04.483Z,62.98
2022-09-10T18:56:35.065Z,63.36
2022-09-10T18:59:07.483Z,63.27
2022-09-10T19:01:38.241Z,63.18
2022-09-10T19:04:07.339Z,63.54
2022-09-10T19:06:38.900Z,63.33
2022-09-10T19:09:09.621Z,63.31
2022-09-10T19:11:40.685Z,63.33
2022-09-10T19:14:19.646Z,63.32
2022-09-10T19:16:48.906Z,63.18
2022-09-10T19:19:19.864Z,63.46
2022-09-10T19:21:48.960Z,63.36
2022-09-10T19:24:19.362Z,63.54
2022-09-10T19:26:55.090Z,63.31
2022-09-10T19:29:23.425Z,63.48
2022-09-10T19:31:52.964Z,63.22
2022-09-10T19:34:22.859Z,63.58
2022-09-10T19:36:50.644Z,63.53
2022-09-10T19:39:19.268Z,63.65
2022-09-10T19:41:48.007Z,63.56
2022-09-10T19:44:18.765Z,63.44
2022-09-10T19:46:46.709Z,63.48
2022-09-10T19:49:14.423Z,63.54
2022-09-10T19:51:43.490Z,63.65
2022-09-10T19:54:12.683Z,63.70
2022-09-10T19:56:42.483Z,63.73
2022-09-10T19:59:11.007Z,63.40
2022-09-10T20:01:42.681Z,63.62
2022-09-10T20:04:12.611Z,63.62
2022-09-10T20:06:41.866Z,63.78
2022-09-10T20:09:10.909Z,63.82
2022-09-10T20:11:39.524Z,63.63
2022-09-10T20:14:10.039Z,64.10
2022-09-10T20:16:39.160Z,64.05
2022-09-10T20:19:08.797Z,64.12
2022-09-10T20:21:37.807Z,64.00
2022-09-10T20:24:07.816Z,64.30
2022-09-10T20:26:38.552Z,63.91
2022-09-10T20:29:08.338Z,63.89
2022-09-10T20:31:41.508Z,64.06
2022-09-10T20:34:14.225Z,63.98
2022-09-10T20:36:43.196Z,63.94
2022-09-10T20:39:13.604Z,64.17
2022-09-10T20:41:42.405Z,63.74
2022-09-10T20:44:13.607Z,63.44
2022-09-10T20:46:42.220Z,63.66
2022-09-10T20:49:13.621Z,63.57
2022-09-10T20:51:42.627Z,63.41
2022-09-10T20:54:13.595Z,63.85
2022-09-10T20:56:42.616Z,63.76
2022-09-10T20:59:12.090Z,63.91
2022-09-10T21:01:40.282Z,63.88
2022-09-10T21:04:08.676Z,64.18
2022-09-10T21:06:37.976Z,64.08
2022-09-10T21:09:06.174Z,64.07
2022-09-10T21:11:35.950Z,64.28
2022-09-10T21:14:06.586Z,64.19
2022-09-10T21:16:37.074Z,64.15
2022-09-10T21:19:07.789Z,63.92
2022-09-10T21:21:39.539Z,63.86
2022-09-10T21:24:09.060Z,63.55
2022-09-10T21:26:39.484Z,63.75
2022-09-10T21:29:10.635Z,63.63
2022-09-10T21:31:39.669Z,63.48
2022-09-10T21:34:07.822Z,63.39
2022-09-10T21:36:38.547Z,63.51
2022-09-10T21:39:08.330Z,63.61
2022-09-10T21:41:37.679Z,63.26
2022-09-10T21:44:09.036Z,63.38
2022-09-10T21:46:37.168Z,63.58
2022-09-10T21:49:05.263Z,63.39
2022-09-10T21:51:33.421Z,63.36
2022-09-10T21:54:03.007Z,63.31
2022-09-10T21:56:30.717Z,63.46
2022-09-10T21:59:01.129Z,63.26
2022-09-10T22:01:30.670Z,63.36
2022-09-10T22:04:01.056Z,63.39
2022-09-10T22:06:30.629Z,63.42
2022-09-10T22:09:00.635Z,63.00
2022-09-10T22:11:32.932Z,63.47
2022-09-10T22:14:03.012Z,63.31
2022-09-10T22:16:32.215Z,63.40
2022-09-10T22:19:03.029Z,63.31
2022-09-10T22:21:31.198Z,63.52
2022-09-10T22:23:59.679Z,63.11
2022-09-10T22:26:29.706Z,63.14
2022-09-10T22:29:00.419Z,63.03
2022-09-10T22:31:31.235Z,63.09
2022-09-10T22:34:00.907Z,62.76
2022-09-10T22:36:31.460Z,63.06
2022-09-10T22:39:01.433Z,62.86
2022-09-10T22:41:34.064Z,62.76
2022-09-10T22:44:02.842Z,63.06
2022-09-10T22:46:31.360Z,62.55
2022-09-10T22:48:59.973Z,63.01
2022-09-10T22:51:29.878Z,62.81
2022-09-10T22:53:59.609Z,62.74
2022-09-10T22:56:28.151Z,63.40
2022-09-10T22:58:58.957Z,63.00
2022-09-10T23:01:29.550Z,63.04
2022-09-10T23:03:58.149Z,62.71
2022-09-10T23:06:29.070Z,62.88
2022-09-10T23:08:59.304Z,62.64
2022-09-10T23:11:29.261Z,62.71
2022-09-10T23:14:01.424Z,62.63
2022-09-10T23:16:33.454Z,62.57
2022-09-10T23:19:03.847Z,62.79
2022-09-10T23:21:33.634Z,62.59
2022-09-10T23:24:03.091Z,62.62
2022-09-10T23:26:31.502Z,62.81
2022-09-10T23:29:03.730Z,62.96
2022-09-10T23:31:33.906Z,62.72
2022-09-10T23:34:04.134Z,62.66
2022-09-10T23:36:34.530Z,63.36
2022-09-10T23:39:05.032Z,63.95
2022-09-10T23:41:33.594Z,63.74
2022-09-10T23:44:03.123Z,63.95
2022-09-10T23:46:31.662Z,63.86
2022-09-10T23:49:00.323Z,63.71
2022-09-10T23:51:29.477Z,64.04
2022-09-10T23:53:57.204Z,64.18
2022-09-10T23:56:27.457Z,64.39
2022-09-10T23:58:55.655Z,64.65
